Time;durP1;ratioP1;P1;durP2;ratioP2;P2;SDS_P1;SDS_P2;PMS_P1;PMS_P2;Temp;Humidity;BMP_temperature;BMP_pressure;BME280_temperature;BME280_humidity;BME280_pressure;Samples;Min_cycle;Max_cycle;Signal;HPM_P1;HPM_P2
2022/07/05 00:00:58;;;;;;;1.90;0.85;;;;;;;;;;5053740;28;20252;-14
2022/07/05 00:03:25;;;;;;;1.65;1.17;;;;;;;;;;5053191;28;20237;-14
2022/07/05 00:05:53;;;;;;;1.00;0.70;;;;;;;;;;5053235;28;20325;-14
2022/07/05 00:08:20;;;;;;;2.90;1.20;;;;;;;;;;5054090;28;20237;-14
2022/07/05 00:10:48;;;;;;;2.83;0.93;;;;;;;;;;5053448;28;20238;-14
2022/07/05 00:13:15;;;;;;;1.15;0.80;;;;;;;;;;5053173;28;20238;-14
2022/07/05 00:15:42;;;;;;;2.63;1.20;;;;;;;;;;5053553;28;20232;-14
2022/07/05 00:18:11;;;;;;;2.22;0.70;;;;;;;;;;5053511;28;20707;-14
2022/07/05 00:20:38;;;;;;;0.73;0.73;;;;;;;;;;5053367;28;20337;-14
2022/07/05 00:23:06;;;;;;;2.00;1.00;;;;;;;;;;5052314;28;20976;-14
2022/07/05 00:25:33;;;;;;;1.58;0.73;;;;;;;;;;5053162;28;20225;-14
2022/07/05 00:28:01;;;;;;;1.63;1.00;;;;;;;;;;5053530;28;21050;-14
2022/07/05 00:30:28;;;;;;;1.65;0.60;;;;;;;;;;5052880;28;21084;-14
2022/07/05 00:32:55;;;;;;;1.88;0.80;;;;;;;;;;5053495;28;20272;-14
2022/07/05 00:35:24;;;;;;;1.10;0.65;;;;;;;;;;5052891;28;20237;-14
2022/07/05 00:37:51;;;;;;;1.08;0.82;;;;;;;;;;5053117;28;20237;-14
2022/07/05 00:40:19;;;;;;;1.65;1.10;;;;;;;;;;5039215;28;20237;-14
2022/07/05 00:42:47;;;;;;;2.35;1.10;;;;;;;;;;5053410;28;20230;-14
2022/07/05 00:45:14;;;;;;;1.80;0.90;;;;;;;;;;5052410;28;20241;-14
2022/07/05 00:47:41;;;;;;;2.95;1.05;;;;;;;;;;5053106;28;20630;-14
2022/07/05 00:50:09;;;;;;;1.33;0.85;;;;;;;;;;5053316;28;20252;-14
2022/07/05 00:52:38;;;;;;;1.50;0.98;;;;;;;;;;5053284;28;20237;-14
2022/07/05 00:55:05;;;;;;;2.08;1.02;;;;;;;;;;5052311;28;20285;-14
2022/07/05 00:57:33;;;;;;;2.85;1.10;;;;;;;;;;5052095;28;20233;-14
2022/07/05 01:00:01;;;;;;;2.15;0.98;;;;;;;;;;5052447;28;20233;-14
2022/07/05 01:02:28;;;;;;;1.02;0.90;;;;;;;;;;5052562;28;20226;-14
2022/07/05 01:04:56;;;;;;;1.15;0.85;;;;;;;;;;5052860;28;20614;-14
2022/07/05 01:07:23;;;;;;;1.85;1.20;;;;;;;;;;5052339;28;20236;-14
2022/07/05 01:09:52;;;;;;;1.33;1.00;;;;;;;;;;5052494;28;20233;-13
2022/07/05 01:12:19;;;;;;;1.67;1.08;;;;;;;;;;5052617;28;20238;-14
2022/07/05 01:14:47;;;;;;;1.75;1.00;;;;;;;;;;5052912;28;20242;-14
2022/07/05 01:17:15;;;;;;;3.78;1.00;;;;;;;;;;5052732;28;20792;-14
2022/07/05 01:19:42;;;;;;;1.67;1.13;;;;;;;;;;5051453;28;20284;-14
2022/07/05 01:22:12;;;;;;;5.00;1.30;;;;;;;;;;5052013;28;20246;-14
2022/07/05 01:24:41;;;;;;;2.53;0.90;;;;;;;;;;5052632;28;20234;-13
2022/07/05 01:27:09;;;;;;;2.85;1.27;;;;;;;;;;5051650;28;20257;-14
2022/07/05 01:29:36;;;;;;;1.25;0.95;;;;;;;;;;5046871;28;20234;-14
2022/07/05 01:32:04;;;;;;;1.73;0.82;;;;;;;;;;5050495;28;20820;-14
2022/07/05 01:34:31;;;;;;;1.10;1.00;;;;;;;;;;5050668;28;20234;-14
2022/07/05 01:36:59;;;;;;;1.95;0.90;;;;;;;;;;5051406;28;20234;-14
2022/07/05 01:39:26;;;;;;;3.10;1.00;;;;;;;;;;5052300;28;20230;-13
2022/07/05 01:41:55;;;;;;;2.10;1.00;;;;;;;;;;5052366;28;20237;-14
2022/07/05 01:44:22;;;;;;;1.52;0.95;;;;;;;;;;5051689;28;20285;-13
2022/07/05 01:46:50;;;;;;;1.77;0.95;;;;;;;;;;5051617;28;20230;-14
2022/07/05 01:49:17;;;;;;;1.70;0.88;;;;;;;;;;5051393;28;20717;-14
2022/07/05 01:51:46;;;;;;;1.75;0.88;;;;;;;;;;5051531;28;20252;-14
2022/07/05 01:54:13;;;;;;;2.13;1.00;;;;;;;;;;5052049;28;20238;-14
2022/07/05 01:56:41;;;;;;;1.35;0.90;;;;;;;;;;5052535;28;20230;-14
2022/07/05 01:59:10;;;;;;;2.72;1.02;;;;;;;;;;5051346;28;20230;-14
2022/07/05 02:01:37;;;;;;;1.55;1.10;;;;;;;;;;5051849;28;20231;-14
2022/07/05 02:04:05;;;;;;;2.03;1.20;;;;;;;;;;5051806;28;20258;-14
2022/07/05 02:06:33;;;;;;;2.22;1.00;;;;;;;;;;5051916;28;20727;-14
2022/07/05 02:09:00;;;;;;;2.10;1.00;;;;;;;;;;5051150;28;20229;-14
2022/07/05 02:11:28;;;;;;;2.50;0.95;;;;;;;;;;5051374;28;20337;-14
2022/07/05 02:13:55;;;;;;;2.15;1.05;;;;;;;;;;5051385;28;20242;-14
2022/07/05 02:16:24;;;;;;;2.05;1.30;;;;;;;;;;5051659;28;20229;-14
2022/07/05 02:18:52;;;;;;;1.50;1.00;;;;;;;;;;5052178;28;20230;-14
2022/07/05 02:21:19;;;;;;;2.30;1.30;;;;;;;;;;5050857;28;20222;-14
2022/07/05 02:23:47;;;;;;;2.58;1.30;;;;;;;;;;5050632;28;20238;-14
2022/07/05 02:26:14;;;;;;;2.53;1.10;;;;;;;;;;5051655;28;20226;-14
2022/07/05 02:28:42;;;;;;;1.70;1.00;;;;;;;;;;5050852;28;20561;-14
2022/07/05 02:31:09;;;;;;;3.55;1.48;;;;;;;;;;5051089;28;20240;-14
2022/07/05 02:33:38;;;;;;;0.90;0.90;;;;;;;;;;5051076;28;20702;-14
2022/07/05 02:36:09;;;;;;;1.55;0.90;;;;;;;;;;5051533;28;20230;-14
2022/07/05 02:38:37;;;;;;;2.13;1.00;;;;;;;;;;5049911;28;20237;-14
2022/07/05 02:41:07;;;;;;;1.50;1.23;;;;;;;;;;5049532;28;20674;-14
2022/07/05 02:43:35;;;;;;;1.55;1.02;;;;;;;;;;5048756;28;21070;-14
2022/07/05 02:46:02;;;;;;;1.30;0.90;;;;;;;;;;5049036;28;20393;-13
2022/07/05 02:48:29;;;;;;;1.83;1.17;;;;;;;;;;5049244;28;20230;-14
2022/07/05 02:50:58;;;;;;;3.05;0.90;;;;;;;;;;5050181;28;20713;-14
2022/07/05 02:53:26;;;;;;;1.20;1.00;;;;;;;;;;5049963;28;20233;-14
2022/07/05 02:55:53;;;;;;;2.13;1.13;;;;;;;;;;5051098;28;20234;-14
2022/07/05 02:58:20;;;;;;;1.33;0.98;;;;;;;;;;5050286;28;20230;-14
2022/07/05 03:00:48;;;;;;;1.83;1.20;;;;;;;;;;5050506;28;20234;-14
2022/07/05 03:03:16;;;;;;;1.17;1.08;;;;;;;;;;5042961;28;20273;-14
2022/07/05 03:05:43;;;;;;;1.15;0.93;;;;;;;;;;5044064;28;20226;-14
2022/07/05 03:08:12;;;;;;;3.33;1.00;;;;;;;;;;5045052;28;20227;-14
2022/07/05 03:10:39;;;;;;;2.92;1.20;;;;;;;;;;5030849;28;20245;-14
2022/07/05 03:13:07;;;;;;;1.70;1.10;;;;;;;;;;5049182;28;20233;-14
2022/07/05 03:15:34;;;;;;;1.92;1.10;;;;;;;;;;5050293;28;20878;-14
2022/07/05 03:18:01;;;;;;;1.92;1.00;;;;;;;;;;5050764;28;20245;-14
2022/07/05 03:20:29;;;;;;;1.65;1.08;;;;;;;;;;5050667;28;20232;-14
2022/07/05 03:22:56;;;;;;;3.25;1.15;;;;;;;;;;5049421;28;21483;-14
2022/07/05 03:25:25;;;;;;;1.35;1.00;;;;;;;;;;5051025;28;20226;-14
2022/07/05 03:27:52;;;;;;;1.30;1.05;;;;;;;;;;5050323;28;20534;-14
2022/07/05 03:30:20;;;;;;;1.23;1.00;;;;;;;;;;5050458;28;20238;-14
2022/07/05 03:32:47;;;;;;;1.23;1.02;;;;;;;;;;5050741;28;20230;-14
2022/07/05 03:35:14;;;;;;;6.38;1.13;;;;;;;;;;5050652;28;20242;-14
2022/07/05 03:37:42;;;;;;;1.98;1.50;;;;;;;;;;5040301;28;20250;-14
2022/07/05 03:40:09;;;;;;;1.20;1.08;;;;;;;;;;5044734;28;20253;-14
2022/07/05 03:42:38;;;;;;;1.90;1.05;;;;;;;;;;5030753;28;20695;-14
2022/07/05 03:45:06;;;;;;;4.38;1.15;;;;;;;;;;5046069;28;20236;-14
2022/07/05 03:47:33;;;;;;;1.30;1.10;;;;;;;;;;5049383;28;20236;-14
2022/07/05 03:50:01;;;;;;;1.13;0.93;;;;;;;;;;5049790;28;21082;-14
2022/07/05 03:52:28;;;;;;;1.77;1.30;;;;;;;;;;5045126;28;20241;-14
2022/07/05 03:54:55;;;;;;;3.15;1.05;;;;;;;;;;5041844;28;20245;-14
2022/07/05 03:57:23;;;;;;;0.95;0.80;;;;;;;;;;5036240;28;20233;-14
2022/07/05 03:59:52;;;;;;;1.90;1.45;;;;;;;;;;5049820;28;20727;-14
2022/07/05 04:02:19;;;;;;;1.92;1.10;;;;;;;;;;5048253;28;20635;-14
2022/07/05 04:04:47;;;;;;;1.30;0.90;;;;;;;;;;5038658;28;20242;-14
2022/07/05 04:07:14;;;;;;;1.52;1.00;;;;;;;;;;5050378;28;20234;-14
2022/07/05 04:09:41;;;;;;;1.73;1.25;;;;;;;;;;5050411;28;20276;-14
2022/07/05 04:12:10;;;;;;;1.42;1.30;;;;;;;;;;5049190;28;20227;-14
2022/07/05 04:14:37;;;;;;;3.80;1.27;;;;;;;;;;5050307;28;20227;-14
2022/07/05 04:17:06;;;;;;;2.97;1.30;;;;;;;;;;5053608;28;20241;-14
2022/07/05 04:19:33;;;;;;;4.78;1.20;;;;;;;;;;5053577;28;20241;-14
2022/07/05 04:22:01;;;;;;;1.58;1.00;;;;;;;;;;5052629;28;20242;-14
2022/07/05 04:24:28;;;;;;;1.95;1.15;;;;;;;;;;5053366;28;20230;-14
2022/07/05 04:26:55;;;;;;;1.20;1.00;;;;;;;;;;5053414;28;20230;-14
2022/07/05 04:29:23;;;;;;;1.60;1.33;;;;;;;;;;5052861;28;20257;-14
2022/07/05 04:31:50;;;;;;;1.45;1.35;;;;;;;;;;5053231;28;20237;-14
2022/07/05 04:34:19;;;;;;;1.50;1.08;;;;;;;;;;5052621;28;20226;-14
2022/07/05 04:36:46;;;;;;;3.30;1.33;;;;;;;;;;5052286;28;20288;-14
2022/07/05 04:39:14;;;;;;;3.55;1.30;;;;;;;;;;5052937;28;20230;-14
2022/07/05 04:41:41;;;;;;;2.17;1.27;;;;;;;;;;5053016;28;20232;-14
2022/07/05 04:44:08;;;;;;;1.98;1.30;;;;;;;;;;5052427;28;20234;-14
2022/07/05 04:46:36;;;;;;;5.85;1.55;;;;;;;;;;5052968;28;20230;-14
2022/07/05 04:49:04;;;;;;;2.40;1.58;;;;;;;;;;5048352;28;20281;-14
2022/07/05 04:51:32;;;;;;;1.45;1.30;;;;;;;;;;5044484;28;20230;-14
2022/07/05 04:54:00;;;;;;;1.95;1.30;;;;;;;;;;5053202;28;20246;-14
2022/07/05 04:56:27;;;;;;;1.63;1.33;;;;;;;;;;5042326;28;20243;-14
2022/07/05 04:58:55;;;;;;;2.25;1.25;;;;;;;;;;5048807;28;20230;-14
2022/07/05 05:01:22;;;;;;;1.80;1.40;;;;;;;;;;5051566;28;20252;-14
2022/07/05 05:03:50;;;;;;;1.75;1.10;;;;;;;;;;5052514;28;20236;-14
2022/07/05 05:06:17;;;;;;;1.30;1.20;;;;;;;;;;5052487;28;20236;-14
2022/07/05 05:08:46;;;;;;;1.70;1.25;;;;;;;;;;5040052;28;20227;-14
2022/07/05 05:11:13;;;;;;;2.20;1.60;;;;;;;;;;5038382;28;20238;-14
2022/07/05 05:13:45;;;;;;;2.08;1.30;;;;;;;;;;5052928;28;20981;-14
2022/07/05 05:16:12;;;;;;;3.42;1.50;;;;;;;;;;5051950;28;20246;-14
2022/07/05 05:18:40;;;;;;;2.50;1.80;;;;;;;;;;5041887;28;20249;-14
2022/07/05 05:21:07;;;;;;;2.45;1.55;;;;;;;;;;5046778;28;20223;-14
2022/07/05 05:23:34;;;;;;;1.65;1.20;;;;;;;;;;5041103;28;20253;-14
2022/07/05 05:26:03;;;;;;;2.63;1.10;;;;;;;;;;5051232;28;20725;-14
2022/07/05 05:28:30;;;;;;;3.53;1.33;;;;;;;;;;5051396;28;20230;-14
2022/07/05 05:30:58;;;;;;;3.00;1.50;;;;;;;;;;5052399;28;21057;-14
2022/07/05 05:33:25;;;;;;;2.28;1.60;;;;;;;;;;5052342;28;20281;-14
2022/07/05 05:35:54;;;;;;;1.92;1.20;;;;;;;;;;5052430;28;20296;-14
2022/07/05 05:38:21;;;;;;;1.40;1.30;;;;;;;;;;5049066;28;20956;-14
2022/07/05 05:40:49;;;;;;;2.72;1.50;;;;;;;;;;5052117;28;20233;-14
2022/07/05 05:43:18;;;;;;;2.08;1.50;;;;;;;;;;5049190;28;20231;-14
2022/07/05 05:45:45;;;;;;;5.65;1.73;;;;;;;;;;5037924;28;20959;-14
2022/07/05 05:48:12;;;;;;;2.00;1.52;;;;;;;;;;5052083;28;20437;-14
2022/07/05 05:50:40;;;;;;;7.07;1.75;;;;;;;;;;5050828;28;20234;-14
2022/07/05 05:53:07;;;;;;;1.92;1.40;;;;;;;;;;5052263;28;20241;-14
2022/07/05 05:55:36;;;;;;;3.13;1.85;;;;;;;;;;5050036;28;20226;-14
2022/07/05 05:58:13;;;;;;;3.70;1.80;;;;;;;;;;5040977;28;20240;-14
2022/07/05 06:00:42;;;;;;;3.55;1.65;;;;;;;;;;5050364;28;20234;-14
2022/07/05 06:03:09;;;;;;;2.08;1.25;;;;;;;;;;5051289;28;20241;-14
2022/07/05 06:05:37;;;;;;;4.22;1.50;;;;;;;;;;5050784;28;20237;-14
2022/07/05 06:08:04;;;;;;;3.63;1.77;;;;;;;;;;5051102;28;20230;-14
2022/07/05 06:10:32;;;;;;;2.38;1.63;;;;;;;;;;5048432;28;20234;-14
2022/07/05 06:13:00;;;;;;;2.17;1.60;;;;;;;;;;5044891;28;21065;-14
2022/07/05 06:15:26;;;;;;;2.85;1.60;;;;;;;;;;5045668;28;20222;-14
2022/07/05 06:17:55;;;;;;;3.83;2.08;;;;;;;;;;5051393;28;20242;-14
2022/07/05 06:20:23;;;;;;;2.25;1.70;;;;;;;;;;5051091;28;20353;-14
2022/07/05 06:22:50;;;;;;;3.97;1.90;;;;;;;;;;5047645;28;20732;-14
2022/07/05 06:25:18;;;;;;;4.18;1.73;;;;;;;;;;5051223;28;20261;-14
2022/07/05 06:27:50;;;;;;;4.18;2.00;;;;;;;;;;5051231;28;20226;-14
2022/07/05 06:30:18;;;;;;;3.50;2.40;;;;;;;;;;5049230;28;20226;-14
2022/07/05 06:32:47;;;;;;;3.63;2.00;;;;;;;;;;5049010;28;20821;-14
2022/07/05 06:35:16;;;;;;;3.38;2.08;;;;;;;;;;5047627;28;20996;-14
2022/07/05 06:37:44;;;;;;;7.43;2.42;;;;;;;;;;5045057;28;20732;-14
2022/07/05 06:40:11;;;;;;;3.17;2.20;;;;;;;;;;5049264;28;20234;-14
2022/07/05 06:42:44;;;;;;;6.72;2.13;;;;;;;;;;5045096;28;21132;-14
2022/07/05 06:45:11;;;;;;;6.68;2.33;;;;;;;;;;5045028;28;20229;-14
2022/07/05 06:47:39;;;;;;;4.90;2.42;;;;;;;;;;5042567;28;20240;-14
2022/07/05 06:50:07;;;;;;;8.80;2.20;;;;;;;;;;5050796;28;20236;-14
2022/07/05 06:52:36;;;;;;;5.88;2.30;;;;;;;;;;5051025;28;20234;-14
2022/07/05 06:55:03;;;;;;;9.77;2.53;;;;;;;;;;5051283;28;20249;-14
2022/07/05 06:57:30;;;;;;;6.30;2.20;;;;;;;;;;5050292;28;20337;-14
2022/07/05 06:59:59;;;;;;;5.07;2.53;;;;;;;;;;5050781;28;20485;-14
2022/07/05 07:02:46;;;;;;;6.70;2.20;;;;;;;;;;5052006;28;20234;-14
2022/07/05 07:05:14;;;;;;;3.67;1.95;;;;;;;;;;5050998;28;20289;-14
2022/07/05 07:10:26;;;;;;;11.52;2.15;;;;;;;;;;5017773;28;20971;-14
2022/07/05 07:12:56;;;;;;;6.35;2.35;;;;;;;;;;5052643;28;21123;-14
2022/07/05 07:15:23;;;;;;;5.88;2.25;;;;;;;;;;5052436;28;20249;-14
2022/07/05 07:17:50;;;;;;;5.80;1.95;;;;;;;;;;5052202;28;20244;-14
2022/07/05 07:20:18;;;;;;;8.50;1.92;;;;;;;;;;5050655;28;20236;-14
2022/07/05 07:22:47;;;;;;;11.50;2.53;;;;;;;;;;5050108;28;20249;-14
2022/07/05 07:25:14;;;;;;;13.40;2.83;;;;;;;;;;5051841;28;20268;-14
2022/07/05 07:27:43;;;;;;;12.88;2.78;;;;;;;;;;5051325;28;20222;-14
2022/07/05 07:30:11;;;;;;;5.82;2.70;;;;;;;;;;5047475;28;20713;-14
2022/07/05 07:32:38;;;;;;;13.48;2.70;;;;;;;;;;5051464;28;20727;-14
2022/07/05 07:35:06;;;;;;;12.25;2.58;;;;;;;;;;5043636;28;20229;-14
2022/07/05 07:37:33;;;;;;;4.43;2.20;;;;;;;;;;5051232;28;20248;-14
2022/07/05 07:40:02;;;;;;;12.23;2.28;;;;;;;;;;5051669;28;20233;-14
2022/07/05 07:42:30;;;;;;;16.88;2.67;;;;;;;;;;5051905;28;20226;-14
2022/07/05 07:44:57;;;;;;;6.47;2.05;;;;;;;;;;5049190;28;21722;-14
2022/07/05 07:47:25;;;;;;;4.15;2.40;;;;;;;;;;5052213;28;20234;-14
2022/07/05 07:49:52;;;;;;;8.05;2.20;;;;;;;;;;5052063;28;20686;-14
2022/07/05 07:52:19;;;;;;;9.07;2.40;;;;;;;;;;5052586;28;21168;-14
2022/07/05 07:54:47;;;;;;;7.07;2.65;;;;;;;;;;5053137;28;20332;-14
2022/07/05 07:57:16;;;;;;;6.20;1.88;;;;;;;;;;5054051;28;20259;-14
2022/07/05 07:59:44;;;;;;;8.70;1.92;;;;;;;;;;5053930;28;20230;-14
2022/07/05 08:02:11;;;;;;;10.52;2.33;;;;;;;;;;5053446;28;20222;-14
2022/07/05 08:04:38;;;;;;;6.57;1.98;;;;;;;;;;5048557;28;20233;-14
2022/07/05 08:07:06;;;;;;;6.22;1.38;;;;;;;;;;5044451;28;20236;-14
2022/07/05 08:09:33;;;;;;;4.10;1.83;;;;;;;;;;5042730;28;20698;-14
2022/07/05 08:12:01;;;;;;;3.70;1.75;;;;;;;;;;5049549;28;20226;-14
2022/07/05 08:14:29;;;;;;;8.07;1.90;;;;;;;;;;5048877;28;20238;-15
2022/07/05 08:16:58;;;;;;;13.00;2.38;;;;;;;;;;5048013;28;20238;-14
2022/07/05 08:22:10;;;;;;;6.10;1.70;;;;;;;;;;5049721;28;20245;-14
2022/07/05 08:24:39;;;;;;;11.38;2.05;;;;;;;;;;5045785;28;20233;-14
2022/07/05 08:27:06;;;;;;;13.35;1.67;;;;;;;;;;5050072;28;20238;-14
2022/07/05 08:29:35;;;;;;;10.60;1.70;;;;;;;;;;5051273;28;20238;-14
2022/07/05 08:32:03;;;;;;;7.40;1.67;;;;;;;;;;5049499;28;20273;-14
2022/07/05 08:34:30;;;;;;;8.02;1.67;;;;;;;;;;5053776;28;20222;-14
2022/07/05 08:36:58;;;;;;;10.02;1.58;;;;;;;;;;5053700;28;20227;-14
2022/07/05 08:39:25;;;;;;;6.13;2.72;;;;;;;;;;5053500;28;20238;-14
2022/07/05 08:41:53;;;;;;;9.65;2.05;;;;;;;;;;5053250;28;20572;-14
2022/07/05 08:44:20;;;;;;;4.03;1.48;;;;;;;;;;5052317;28;20236;-14
2022/07/05 08:46:50;;;;;;;7.03;1.52;;;;;;;;;;5052769;28;20226;-14
2022/07/05 08:49:21;;;;;;;5.82;1.48;;;;;;;;;;5047183;28;20266;-14
2022/07/05 08:51:48;;;;;;;4.03;1.27;;;;;;;;;;5048383;28;20621;-14
2022/07/05 08:54:16;;;;;;;3.38;1.42;;;;;;;;;;5047828;28;21000;-14
2022/07/05 08:56:44;;;;;;;4.85;1.50;;;;;;;;;;5038266;28;20716;-14
2022/07/05 08:59:31;;;;;;;3.10;1.25;;;;;;;;;;5039445;28;20242;-14
2022/07/05 09:02:00;;;;;;;3.22;1.30;;;;;;;;;;5052105;28;20222;-14
2022/07/05 09:04:28;;;;;;;4.85;2.00;;;;;;;;;;5052912;28;20242;-14
2022/07/05 09:06:55;;;;;;;6.20;1.42;;;;;;;;;;5053030;28;20234;-14
2022/07/05 09:09:23;;;;;;;2.05;1.15;;;;;;;;;;5052079;28;20705;-14
2022/07/05 09:11:51;;;;;;;2.83;1.33;;;;;;;;;;5052780;28;20234;-14
2022/07/05 09:14:39;;;;;;;3.70;1.50;;;;;;;;;;5039375;28;20340;-14
2022/07/05 09:17:08;;;;;;;3.15;1.50;;;;;;;;;;5052895;28;20234;-14
2022/07/05 09:19:35;;;;;;;4.40;1.38;;;;;;;;;;5052273;28;20242;-14
2022/07/05 09:22:08;;;;;;;3.30;1.30;;;;;;;;;;5040846;28;20242;-14
2022/07/05 09:24:43;;;;;;;2.17;1.00;;;;;;;;;;5046692;28;21105;-14
2022/07/05 09:27:11;;;;;;;2.92;1.50;;;;;;;;;;5043398;28;20238;-14
2022/07/05 09:29:38;;;;;;;2.80;1.00;;;;;;;;;;5049206;28;20711;-14
2022/07/05 09:32:25;;;;;;;2.80;1.05;;;;;;;;;;5051976;28;20234;-14
2022/07/05 09:34:52;;;;;;;3.95;1.30;;;;;;;;;;5035030;28;21078;-14
2022/07/05 09:37:20;;;;;;;1.65;0.90;;;;;;;;;;5052797;28;20230;-14
2022/07/05 09:39:47;;;;;;;3.03;1.05;;;;;;;;;;5051698;28;20621;-14
2022/07/05 09:42:19;;;;;;;2.78;1.42;;;;;;;;;;5051524;28;20242;-14
2022/07/05 09:44:46;;;;;;;3.67;1.20;;;;;;;;;;5038303;28;20245;-14
2022/07/05 09:47:15;;;;;;;3.10;1.13;;;;;;;;;;5052186;28;20297;-14
2022/07/05 09:49:44;;;;;;;1.33;1.02;;;;;;;;;;5052314;28;20226;-14
2022/07/05 09:52:33;;;;;;;1.75;1.00;;;;;;;;;;5050593;28;20234;-14
2022/07/05 09:55:01;;;;;;;3.50;1.20;;;;;;;;;;5052219;28;20226;-14
2022/07/05 09:57:29;;;;;;;2.13;1.00;;;;;;;;;;5052072;28;20747;-14
2022/07/05 09:59:58;;;;;;;2.58;0.82;;;;;;;;;;5052167;28;20237;-15
2022/07/05 10:02:34;;;;;;;5.30;0.95;;;;;;;;;;5051060;28;20248;-14
2022/07/05 10:05:09;;;;;;;1.90;1.00;;;;;;;;;;5041868;28;20226;-14
2022/07/05 10:07:37;;;;;;;2.20;1.00;;;;;;;;;;5032108;28;20230;-14
2022/07/05 10:10:04;;;;;;;2.15;1.10;;;;;;;;;;5042197;28;20237;-14
2022/07/05 10:12:32;;;;;;;3.45;1.00;;;;;;;;;;5051401;28;20230;-14
2022/07/05 10:14:59;;;;;;;3.13;1.15;;;;;;;;;;5042924;28;20226;-14
2022/07/05 10:17:27;;;;;;;2.67;0.90;;;;;;;;;;5051311;28;20723;-14
2022/07/05 10:20:00;;;;;;;1.50;0.90;;;;;;;;;;5048148;28;20245;-14
2022/07/05 10:22:29;;;;;;;1.45;1.00;;;;;;;;;;5050985;28;20942;-14
2022/07/05 10:24:57;;;;;;;2.58;0.90;;;;;;;;;;5050506;28;20233;-14
2022/07/05 10:27:25;;;;;;;2.20;1.10;;;;;;;;;;5052378;28;20226;-14
2022/07/05 10:29:52;;;;;;;1.48;1.00;;;;;;;;;;5051749;28;20228;-14
2022/07/05 10:32:19;;;;;;;3.78;1.23;;;;;;;;;;5051519;28;20909;-14
2022/07/05 10:34:47;;;;;;;2.50;1.05;;;;;;;;;;5051662;28;20240;-14
2022/07/05 10:37:25;;;;;;;2.30;0.90;;;;;;;;;;5040205;28;20253;-14
2022/07/05 10:39:54;;;;;;;2.10;1.00;;;;;;;;;;5045710;28;20330;-14
2022/07/05 10:42:21;;;;;;;1.02;0.80;;;;;;;;;;5041611;28;20626;-14
2022/07/05 10:44:48;;;;;;;1.60;1.02;;;;;;;;;;5051687;28;20288;-14
2022/07/05 10:47:18;;;;;;;3.25;1.15;;;;;;;;;;5047116;28;20234;-14
2022/07/05 10:49:59;;;;;;;1.33;1.05;;;;;;;;;;5040141;28;20305;-14
2022/07/05 10:52:27;;;;;;;1.13;0.90;;;;;;;;;;5036640;28;20320;-14
2022/07/05 10:55:13;;;;;;;1.67;1.17;;;;;;;;;;5051347;28;20230;-13
2022/07/05 10:57:42;;;;;;;2.78;1.00;;;;;;;;;;5036819;28;20757;-13
2022/07/05 11:00:10;;;;;;;1.77;1.10;;;;;;;;;;5039619;28;20242;-13
2022/07/05 11:02:37;;;;;;;1.80;1.30;;;;;;;;;;5051079;28;20230;-13
2022/07/05 11:05:05;;;;;;;3.60;1.23;;;;;;;;;;5051093;28;20697;-13
2022/07/05 11:07:53;;;;;;;1.33;1.10;;;;;;;;;;5034239;28;20230;-13
2022/07/05 11:10:21;;;;;;;1.65;1.30;;;;;;;;;;5032233;28;20219;-13
2022/07/05 11:12:49;;;;;;;2.28;1.20;;;;;;;;;;5044822;28;20234;-13
2022/07/05 11:15:17;;;;;;;1.40;1.10;;;;;;;;;;5032288;28;20230;-13
2022/07/05 11:17:44;;;;;;;1.70;1.20;;;;;;;;;;5050731;28;20388;-13
2022/07/05 11:20:28;;;;;;;1.38;1.08;;;;;;;;;;5050155;28;20736;-13
2022/07/05 11:23:02;;;;;;;1.77;1.25;;;;;;;;;;5047168;28;20722;-13
2022/07/05 11:25:31;;;;;;;2.22;1.00;;;;;;;;;;5030001;28;20222;-13
2022/07/05 11:28:05;;;;;;;2.53;1.20;;;;;;;;;;5048516;28;20328;-15
2022/07/05 11:30:44;;;;;;;2.78;1.10;;;;;;;;;;5043844;28;20279;-13
2022/07/05 11:33:26;;;;;;;4.47;1.52;;;;;;;;;;5037072;28;20234;-14
2022/07/05 11:35:53;;;;;;;1.63;1.20;;;;;;;;;;5051182;28;20233;-13
2022/07/05 11:38:21;;;;;;;2.42;1.35;;;;;;;;;;5036406;28;20226;-12
2022/07/05 11:40:54;;;;;;;3.03;1.55;;;;;;;;;;5050264;28;20273;-13
2022/07/05 11:43:28;;;;;;;2.85;1.50;;;;;;;;;;5045414;28;20959;-14
2022/07/05 11:45:56;;;;;;;2.17;1.27;;;;;;;;;;5041560;28;20230;-14
2022/07/05 11:48:23;;;;;;;1.55;1.10;;;;;;;;;;5050461;28;20241;-14
2022/07/05 11:50:51;;;;;;;1.77;1.25;;;;;;;;;;5050530;28;20272;-14
2022/07/05 11:53:26;;;;;;;3.97;1.20;;;;;;;;;;5050013;28;20238;-14
2022/07/05 11:56:13;;;;;;;2.42;1.27;;;;;;;;;;5030750;28;20714;-14
2022/07/05 11:58:42;;;;;;;1.30;0.95;;;;;;;;;;5044628;28;20343;-14
2022/07/05 12:01:09;;;;;;;2.92;1.05;;;;;;;;;;5050754;28;20250;-13
2022/07/05 12:03:39;;;;;;;2.03;1.00;;;;;;;;;;5041836;28;20237;-13
2022/07/05 12:06:13;;;;;;;1.48;0.90;;;;;;;;;;5030687;28;20231;-13
2022/07/05 12:08:41;;;;;;;3.00;1.10;;;;;;;;;;5043128;28;20264;-13
2022/07/05 12:13:57;;;;;;;2.35;1.13;;;;;;;;;;5030468;28;20241;-13
2022/07/05 12:16:26;;;;;;;3.13;1.08;;;;;;;;;;5048760;28;20727;-13
2022/07/05 12:18:54;;;;;;;1.58;0.90;;;;;;;;;;5050223;28;20226;-13
2022/07/05 12:21:22;;;;;;;6.80;1.25;;;;;;;;;;5031324;28;20721;-13
2022/07/05 12:23:49;;;;;;;2.55;1.02;;;;;;;;;;5029873;28;20358;-13
2022/07/05 12:26:17;;;;;;;3.70;1.17;;;;;;;;;;5043493;28;20732;-13
2022/07/05 12:28:44;;;;;;;2.83;0.95;;;;;;;;;;5039789;28;20234;-13
2022/07/05 12:31:20;;;;;;;2.50;1.00;;;;;;;;;;5049564;28;20236;-13
2022/07/05 12:33:47;;;;;;;1.52;1.00;;;;;;;;;;5050497;28;20777;-13
2022/07/05 12:36:15;;;;;;;1.80;1.00;;;;;;;;;;5050824;28;20961;-13
2022/07/05 12:38:43;;;;;;;2.90;0.88;;;;;;;;;;5045803;28;20231;-13
2022/07/05 12:41:10;;;;;;;2.47;0.88;;;;;;;;;;5046997;28;20431;-13
2022/07/05 12:43:51;;;;;;;1.70;0.82;;;;;;;;;;5053027;28;20226;-13
2022/07/05 12:46:19;;;;;;;1.60;1.02;;;;;;;;;;5053325;28;20226;-14
2022/07/05 12:48:51;;;;;;;1.77;0.90;;;;;;;;;;5050006;28;20238;-14
2022/07/05 12:51:31;;;;;;;3.70;1.17;;;;;;;;;;5042942;28;20987;-13
2022/07/05 12:59:59;;;;;;;2.60;0.90;;;;;;;;;;5046730;28;20384;-13
2022/07/05 13:02:37;;;;;;;1.25;0.90;;;;;;;;;;5053189;28;21179;-13
2022/07/05 13:05:07;;;;;;;2.03;1.00;;;;;;;;;;5042460;28;20766;-13
2022/07/05 13:07:34;;;;;;;1.90;0.90;;;;;;;;;;5050072;28;20233;-13
2022/07/05 13:10:15;;;;;;;2.10;0.90;;;;;;;;;;5050746;28;20760;-13
2022/07/05 13:12:43;;;;;;;2.70;0.80;;;;;;;;;;5052592;28;20982;-13
2022/07/05 13:15:10;;;;;;;1.48;0.70;;;;;;;;;;5052724;28;20229;-14
2022/07/05 13:17:39;;;;;;;2.42;0.90;;;;;;;;;;5052879;28;20241;-13
2022/07/05 13:20:08;;;;;;;1.45;0.77;;;;;;;;;;5053037;28;20594;-13
2022/07/05 13:22:35;;;;;;;1.75;0.95;;;;;;;;;;5042855;28;20251;-13
2022/07/05 13:25:03;;;;;;;1.45;0.75;;;;;;;;;;5053000;28;20719;-13
2022/07/05 13:27:31;;;;;;;1.15;0.60;;;;;;;;;;5052754;28;20226;-13
2022/07/05 13:29:58;;;;;;;2.25;0.75;;;;;;;;;;5052524;28;20234;-13
2022/07/05 13:32:25;;;;;;;1.95;0.70;;;;;;;;;;5051790;28;20230;-13
2022/07/05 13:34:54;;;;;;;2.78;1.00;;;;;;;;;;5052659;28;20237;-13
2022/07/05 13:37:21;;;;;;;1.75;0.70;;;;;;;;;;5042305;28;20278;-13
2022/07/05 13:39:49;;;;;;;1.75;0.77;;;;;;;;;;5049069;28;20230;-13
2022/07/05 13:42:16;;;;;;;3.58;0.70;;;;;;;;;;5052357;28;20226;-13
2022/07/05 13:44:44;;;;;;;4.38;1.00;;;;;;;;;;5052600;28;20230;-13
2022/07/05 13:47:12;;;;;;;2.97;0.70;;;;;;;;;;5051140;28;20226;-13
2022/07/05 13:49:42;;;;;;;1.95;0.73;;;;;;;;;;5052267;28;20230;-13
2022/07/05 13:52:11;;;;;;;2.45;1.00;;;;;;;;;;5052356;28;20321;-13
2022/07/05 13:54:38;;;;;;;1.95;0.80;;;;;;;;;;5042967;28;20230;-13
2022/07/05 13:57:07;;;;;;;1.17;0.80;;;;;;;;;;5047674;28;20238;-14
2022/07/05 13:59:34;;;;;;;2.22;0.98;;;;;;;;;;5052443;28;20237;-13
2022/07/05 14:02:01;;;;;;;3.97;1.00;;;;;;;;;;5051864;28;20234;-13
2022/07/05 14:04:29;;;;;;;4.57;0.80;;;;;;;;;;5049113;28;20238;-14
2022/07/05 14:06:57;;;;;;;2.53;0.90;;;;;;;;;;5052130;28;20222;-13
2022/07/05 14:09:26;;;;;;;2.45;0.70;;;;;;;;;;5047718;28;20284;-13
2022/07/05 14:11:55;;;;;;;2.53;0.80;;;;;;;;;;5042215;28;20230;-13
2022/07/05 14:14:23;;;;;;;2.25;0.77;;;;;;;;;;5051985;28;20339;-13
2022/07/05 14:16:50;;;;;;;1.05;0.65;;;;;;;;;;5041704;28;20230;-13
2022/07/05 14:19:18;;;;;;;3.30;0.93;;;;;;;;;;5047837;28;20687;-13
2022/07/05 14:21:46;;;;;;;1.98;0.90;;;;;;;;;;5051340;28;20324;-14
2022/07/05 14:24:14;;;;;;;1.10;0.60;;;;;;;;;;5038137;28;20245;-13
2022/07/05 14:26:43;;;;;;;1.88;0.80;;;;;;;;;;5051496;28;20253;-13
2022/07/05 14:29:11;;;;;;;2.75;0.77;;;;;;;;;;5052005;28;20274;-13
2022/07/05 14:31:38;;;;;;;2.38;0.70;;;;;;;;;;5051444;28;20257;-13
2022/07/05 14:34:06;;;;;;;3.58;1.00;;;;;;;;;;5040538;28;20238;-13
2022/07/05 14:36:33;;;;;;;3.53;0.95;;;;;;;;;;5031122;28;20245;-13
2022/07/05 14:39:01;;;;;;;1.33;0.60;;;;;;;;;;5037180;28;20235;-13
2022/07/05 14:41:28;;;;;;;1.15;0.70;;;;;;;;;;5047862;28;21032;-13
2022/07/05 14:43:57;;;;;;;1.98;0.90;;;;;;;;;;5051657;28;20705;-13
2022/07/05 14:46:25;;;;;;;1.83;0.90;;;;;;;;;;5048102;28;20988;-13
2022/07/05 14:48:52;;;;;;;4.43;0.98;;;;;;;;;;5050939;28;20293;-15
2022/07/05 14:51:20;;;;;;;1.48;0.70;;;;;;;;;;5042010;28;20233;-15
2022/07/05 14:53:47;;;;;;;3.28;0.80;;;;;;;;;;5047258;28;20265;-13
2022/07/05 14:56:15;;;;;;;1.70;0.75;;;;;;;;;;5051478;28;20245;-13
2022/07/05 14:58:42;;;;;;;3.25;0.70;;;;;;;;;;5037710;28;20230;-13
2022/07/05 15:01:11;;;;;;;1.60;0.65;;;;;;;;;;5057671;28;20269;-13
2022/07/05 15:03:39;;;;;;;2.72;1.00;;;;;;;;;;5051252;28;20238;-13
2022/07/05 15:06:06;;;;;;;2.20;0.82;;;;;;;;;;5051108;28;20242;-13